createdAt,value
2023-06-11T00:00:37.730Z,5.60
2023-06-11T00:03:07.523Z,5.90
2023-06-11T00:05:39.597Z,6.20
2023-06-11T00:08:11.230Z,5.65
2023-06-11T00:10:40.593Z,5.63
2023-06-11T00:13:09.939Z,6.20
2023-06-11T00:15:39.310Z,5.45
2023-06-11T00:18:09.065Z,6.35
2023-06-11T00:20:43.644Z,6.10
2023-06-11T00:23:13.003Z,5.80
2023-06-11T00:25:42.356Z,6.00
2023-06-11T00:28:11.677Z,5.93
2023-06-11T00:30:41.080Z,5.82
2023-06-11T00:33:10.563Z,5.75
2023-06-11T00:35:42.753Z,6.30
2023-06-11T00:38:12.435Z,5.93
2023-06-11T00:40:41.849Z,5.90
2023-06-11T00:43:11.790Z,6.13
2023-06-11T00:45:42.618Z,5.87
2023-06-11T00:48:12.017Z,5.93
2023-06-11T00:50:48.974Z,5.85
2023-06-11T00:53:19.011Z,5.80
2023-06-11T00:55:48.551Z,6.07
2023-06-11T00:58:19.112Z,6.40
2023-06-11T01:00:50.828Z,5.78
2023-06-11T01:03:22.565Z,5.95
2023-06-11T01:06:02.504Z,6.05
2023-06-11T01:08:32.925Z,6.18
2023-06-11T01:11:04.179Z,6.10
2023-06-11T01:13:33.585Z,5.65
2023-06-11T01:16:04.910Z,6.30
2023-06-11T01:18:39.154Z,6.43
2023-06-11T01:21:13.482Z,6.00
2023-06-11T01:23:44.939Z,6.07
2023-06-11T01:26:19.749Z,6.05
2023-06-11T01:28:53.315Z,6.30
2023-06-11T01:31:22.655Z,6.40
2023-06-11T01:33:52.526Z,6.40
2023-06-11T01:36:25.838Z,6.43
2023-06-11T01:38:55.985Z,6.50
2023-06-11T01:41:25.334Z,6.28
2023-06-11T01:43:57.321Z,6.40
2023-06-11T01:46:26.683Z,6.30
2023-06-11T01:48:56.110Z,6.32
2023-06-11T01:51:25.432Z,6.20
2023-06-11T01:53:56.184Z,6.70
2023-06-11T01:58:59.326Z,6.30
2023-06-11T02:01:30.323Z,6.22
2023-06-11T02:03:59.901Z,6.38
2023-06-11T02:06:29.918Z,6.18
2023-06-11T02:08:59.271Z,6.50
2023-06-11T02:11:28.621Z,6.57
2023-06-11T02:14:00.522Z,5.90
2023-06-11T02:16:29.955Z,6.20
2023-06-11T02:18:59.370Z,6.68
2023-06-11T02:21:28.724Z,6.60
2023-06-11T02:23:58.094Z,6.80
2023-06-11T02:26:27.520Z,6.65
2023-06-11T02:28:56.838Z,6.22
2023-06-11T02:31:28.821Z,6.22
2023-06-11T02:33:58.236Z,6.45
2023-06-11T02:36:27.594Z,6.38
2023-06-11T02:38:56.907Z,6.72
2023-06-11T02:41:26.424Z,6.55
2023-06-11T02:43:55.856Z,6.32
2023-06-11T02:46:27.933Z,6.15
2023-06-11T02:48:57.288Z,6.13
2023-06-11T02:51:26.626Z,6.20
2023-06-11T02:53:56.034Z,6.22
2023-06-11T02:56:25.368Z,6.53
2023-06-11T02:58:54.695Z,6.70
2023-06-11T03:01:24.479Z,6.55
2023-06-11T03:03:57.338Z,6.85
2023-06-11T03:06:26.693Z,6.85
2023-06-11T03:08:56.711Z,6.32
2023-06-11T03:11:27.102Z,6.93
2023-06-11T03:13:56.520Z,6.60
2023-06-11T03:16:26.094Z,6.97
2023-06-11T03:18:58.098Z,6.65
2023-06-11T03:21:27.405Z,6.40
2023-06-11T03:23:56.910Z,6.32
2023-06-11T03:26:26.972Z,6.43
2023-06-11T03:28:56.341Z,6.32
2023-06-11T03:31:25.691Z,6.00
2023-06-11T03:33:55.126Z,6.72
2023-06-11T03:36:27.033Z,6.28
2023-06-11T03:38:56.528Z,5.90
2023-06-11T03:41:27.290Z,5.95
2023-06-11T03:43:56.649Z,5.80
2023-06-11T03:46:26.006Z,5.97
2023-06-11T03:48:55.369Z,6.28
2023-06-11T03:51:27.258Z,5.90
2023-06-11T03:53:56.772Z,5.95
2023-06-11T03:56:26.186Z,6.50
2023-06-11T03:58:55.542Z,6.45
2023-06-11T04:01:24.886Z,6.40
2023-06-11T04:03:54.382Z,6.40
2023-06-11T04:06:23.796Z,6.68
2023-06-11T04:08:55.798Z,6.80
2023-06-11T04:11:25.193Z,6.32
2023-06-11T04:13:54.546Z,6.50
2023-06-11T04:16:24.077Z,6.55
2023-06-11T04:18:53.495Z,6.35
2023-06-11T04:21:22.908Z,6.20
2023-06-11T04:23:55.275Z,6.55
2023-06-11T04:26:25.061Z,6.28
2023-06-11T04:28:54.534Z,6.45
2023-06-11T04:31:28.121Z,6.50
2023-06-11T04:34:04.135Z,6.70
2023-06-11T04:36:33.566Z,5.80
2023-06-11T04:39:05.786Z,6.60
2023-06-11T04:41:37.833Z,6.40
2023-06-11T04:44:07.339Z,6.15
2023-06-11T04:46:36.750Z,6.35
2023-06-11T04:49:08.168Z,6.57
2023-06-11T04:51:42.100Z,6.57
2023-06-11T04:54:14.170Z,6.50
2023-06-11T04:56:43.518Z,6.07
2023-06-11T04:59:12.888Z,6.47
2023-06-11T05:01:48.147Z,6.40
2023-06-11T05:04:17.827Z,6.10
2023-06-11T05:06:47.907Z,6.45
2023-06-11T05:09:19.896Z,6.30
2023-06-11T05:11:49.220Z,5.95
2023-06-11T05:14:18.568Z,6.40
2023-06-11T05:16:48.020Z,6.35
2023-06-11T05:19:17.447Z,5.80
2023-06-11T05:21:47.428Z,6.35
2023-06-11T05:24:21.198Z,5.93
2023-06-11T05:26:57.264Z,6.40
2023-06-11T05:29:26.625Z,6.53
2023-06-11T05:31:57.647Z,6.30
2023-06-11T05:34:27.575Z,6.35
2023-06-11T05:36:56.998Z,6.50
2023-06-11T05:39:26.351Z,6.43
2023-06-11T05:41:58.264Z,6.28
2023-06-11T05:44:27.589Z,6.32
2023-06-11T05:46:56.985Z,6.88
2023-06-11T05:49:26.370Z,6.45
2023-06-11T05:51:55.753Z,6.10
2023-06-11T05:54:25.142Z,5.95
2023-06-11T05:56:54.514Z,6.30
2023-06-11T05:59:26.481Z,5.65
2023-06-11T06:01:55.804Z,5.32
2023-06-11T06:04:25.641Z,5.70
2023-06-11T06:06:54.977Z,5.70
2023-06-11T06:09:24.363Z,6.20
2023-06-11T06:11:53.688Z,6.00
2023-06-11T06:14:23.415Z,5.75
2023-06-11T06:16:55.343Z,6.03
2023-06-11T06:19:24.722Z,6.28
2023-06-11T06:21:54.066Z,5.95
2023-06-11T06:24:23.485Z,6.13
2023-06-11T06:26:53.085Z,5.97
2023-06-11T06:29:22.430Z,5.80
2023-06-11T06:31:51.869Z,5.53
2023-06-11T06:34:23.872Z,5.93
2023-06-11T06:36:53.656Z,5.93
2023-06-11T06:39:22.963Z,6.25
2023-06-11T06:41:52.318Z,6.18
2023-06-11T06:44:21.669Z,5.78
2023-06-11T06:46:51.257Z,6.10
2023-06-11T06:49:20.959Z,6.00
2023-06-11T06:51:53.009Z,6.00
2023-06-11T06:54:22.358Z,5.57
2023-06-11T06:56:51.855Z,6.00
2023-06-11T06:59:21.173Z,5.70
2023-06-11T07:01:50.549Z,5.75
2023-06-11T07:04:19.958Z,5.70
2023-06-11T07:06:49.307Z,5.93
2023-06-11T07:09:21.250Z,5.70
2023-06-11T07:11:53.493Z,5.60
2023-06-11T07:14:22.869Z,5.32
2023-06-11T07:16:52.172Z,5.68
2023-06-11T07:19:21.531Z,5.38
2023-06-11T07:21:51.003Z,6.15
2023-06-11T07:24:23.064Z,5.68
2023-06-11T07:26:52.451Z,5.55
2023-06-11T07:29:21.787Z,5.50
2023-06-11T07:31:51.291Z,5.80
2023-06-11T07:34:20.897Z,5.70
2023-06-11T07:36:50.235Z,5.50
2023-06-11T07:39:19.867Z,5.55
2023-06-11T07:41:51.751Z,5.30
2023-06-11T07:44:21.094Z,5.43
2023-06-11T07:46:50.440Z,5.78
2023-06-11T07:49:19.968Z,5.90
2023-06-11T07:51:49.320Z,5.82
2023-06-11T07:54:18.724Z,5.93
2023-06-11T07:56:48.394Z,5.70
2023-06-11T07:59:20.324Z,6.05
2023-06-11T08:01:49.658Z,5.32
2023-06-11T08:04:19.153Z,5.47
2023-06-11T08:06:48.504Z,5.57
2023-06-11T08:09:17.861Z,5.75
2023-06-11T08:11:47.175Z,5.70
2023-06-11T08:14:20.095Z,5.70
2023-06-11T08:16:52.078Z,5.60
2023-06-11T08:19:21.450Z,4.95
2023-06-11T08:21:50.794Z,5.30
2023-06-11T08:24:20.138Z,5.38
2023-06-11T08:26:49.506Z,5.18
2023-06-11T08:29:19.047Z,5.20
2023-06-11T08:31:48.484Z,5.35
2023-06-11T08:34:20.449Z,5.35
2023-06-11T08:36:49.769Z,5.00
2023-06-11T08:39:19.058Z,5.00
2023-06-11T08:41:48.400Z,4.75
2023-06-11T08:44:17.733Z,5.20
2023-06-11T08:46:47.833Z,4.85
2023-06-11T08:49:18.039Z,4.85
2023-06-11T08:51:49.976Z,5.40
2023-06-11T08:54:19.535Z,5.50
2023-06-11T08:56:48.918Z,5.20
2023-06-11T08:59:20.362Z,5.53
2023-06-11T09:01:52.338Z,4.60
2023-06-11T09:04:22.068Z,5.15
2023-06-11T09:07:00.658Z,5.65
2023-06-11T09:09:30.006Z,5.50
2023-06-11T09:11:59.389Z,5.10
2023-06-11T09:14:28.770Z,5.00
2023-06-11T09:16:58.132Z,5.70
2023-06-11T09:19:27.448Z,5.43
2023-06-11T09:21:59.777Z,5.30
2023-06-11T09:24:29.190Z,5.60
2023-06-11T09:26:58.889Z,5.20
2023-06-11T09:29:28.720Z,4.70
2023-06-11T09:32:12.426Z,5.10
2023-06-11T09:34:52.980Z,5.38
2023-06-11T09:37:24.976Z,5.10
2023-06-11T09:39:54.367Z,4.30
2023-06-11T09:42:28.255Z,5.30
2023-06-11T09:45:01.250Z,5.03
2023-06-11T09:47:30.950Z,4.70
2023-06-11T09:50:00.605Z,5.25
2023-06-11T09:52:32.673Z,4.80
2023-06-11T09:55:02.084Z,4.50
2023-06-11T09:57:32.865Z,4.60
2023-06-11T10:00:02.261Z,4.60
2023-06-11T10:02:31.674Z,4.38
2023-06-11T10:05:01.438Z,5.15
2023-06-11T10:07:33.402Z,4.63
2023-06-11T10:10:02.779Z,4.43
2023-06-11T10:12:35.220Z,4.35
2023-06-11T10:15:04.948Z,4.50
2023-06-11T10:17:34.538Z,4.60
2023-06-11T10:20:04.552Z,4.63
2023-06-11T10:22:39.477Z,4.78
2023-06-11T10:25:09.145Z,4.57
2023-06-11T10:27:38.857Z,5.00
2023-06-11T10:30:09.455Z,4.60
2023-06-11T10:32:39.848Z,4.35
2023-06-11T10:35:09.756Z,4.82
2023-06-11T10:37:42.620Z,4.13
2023-06-11T10:40:13.379Z,3.55
2023-06-11T10:42:43.556Z,4.75
2023-06-11T10:45:13.633Z,5.00
2023-06-11T10:47:46.541Z,3.75
2023-06-11T10:50:16.504Z,4.65
2023-06-11T10:52:54.860Z,4.93
2023-06-11T10:55:24.503Z,5.07
2023-06-11T10:57:54.311Z,4.60
2023-06-11T11:00:23.714Z,4.55
2023-06-11T11:02:53.155Z,4.35
2023-06-11T11:05:22.966Z,4.80
2023-06-11T11:07:55.244Z,4.75
2023-06-11T11:10:27.012Z,5.00
2023-06-11T11:12:56.561Z,4.80
2023-06-11T11:15:26.056Z,4.28
2023-06-11T11:17:55.423Z,4.50
2023-06-11T11:20:24.776Z,4.38
2023-06-11T11:22:57.972Z,4.43
2023-06-11T11:25:29.415Z,4.50
2023-06-11T11:27:58.922Z,4.68
2023-06-11T11:30:29.930Z,4.20
2023-06-11T11:32:59.405Z,4.85
2023-06-11T11:35:29.977Z,4.38
2023-06-11T11:40:31.265Z,4.90
2023-06-11T11:43:01.223Z,4.35
2023-06-11T11:45:33.650Z,4.82
2023-06-11T11:48:05.048Z,4.50
2023-06-11T11:50:35.144Z,4.40
2023-06-11T11:53:06.051Z,4.60
2023-06-11T11:55:56.170Z,4.95
2023-06-11T11:58:32.060Z,4.80
2023-06-11T12:01:01.525Z,4.57
2023-06-11T12:03:31.281Z,4.70
2023-06-11T12:06:01.534Z,5.20
2023-06-11T12:08:31.376Z,4.68
2023-06-11T12:11:04.927Z,5.10
2023-06-11T12:13:34.326Z,4.38
2023-06-11T12:16:05.233Z,4.50
2023-06-11T12:18:35.003Z,4.45
2023-06-11T12:21:04.581Z,4.32
2023-06-11T12:23:33.972Z,4.72
2023-06-11T12:26:06.093Z,5.13
2023-06-11T12:28:36.156Z,4.93
2023-06-11T12:31:05.505Z,4.60
2023-06-11T12:33:37.950Z,4.55
2023-06-11T12:36:07.719Z,4.13
2023-06-11T12:38:40.207Z,4.50
2023-06-11T12:41:12.556Z,4.50
2023-06-11T12:43:41.906Z,4.65
2023-06-11T12:46:11.836Z,4.05
2023-06-11T12:48:41.343Z,4.75
2023-06-11T12:51:10.804Z,4.97
2023-06-11T12:53:40.394Z,4.70
2023-06-11T12:56:12.340Z,5.15
2023-06-11T12:58:41.665Z,4.78
2023-06-11T13:01:11.198Z,4.60
2023-06-11T13:03:40.971Z,4.93
2023-06-11T13:06:10.626Z,4.60
2023-06-11T13:08:40.092Z,4.90
2023-06-11T13:11:11.996Z,5.32
2023-06-11T13:13:41.553Z,5.22
2023-06-11T13:16:10.946Z,5.00
2023-06-11T13:18:40.834Z,5.03
2023-06-11T13:21:10.151Z,5.28
2023-06-11T13:23:39.588Z,5.18
2023-06-11T13:26:08.959Z,5.20
2023-06-11T13:28:43.057Z,5.53
2023-06-11T13:31:12.543Z,5.30
2023-06-11T13:33:41.923Z,4.82
2023-06-11T13:36:11.622Z,5.03
2023-06-11T13:38:42.057Z,5.20
2023-06-11T13:41:11.464Z,4.95
2023-06-11T13:43:43.379Z,5.00
2023-06-11T13:46:12.728Z,5.50
2023-06-11T13:48:42.188Z,5.00
2023-06-11T13:51:11.590Z,4.80
2023-06-11T13:53:40.996Z,5.35
2023-06-11T13:56:10.714Z,4.97
2023-06-11T13:58:40.100Z,4.50
2023-06-11T14:01:12.313Z,5.28
2023-06-11T14:03:41.851Z,4.90
2023-06-11T14:06:11.417Z,4.95
2023-06-11T14:08:40.897Z,4.43
2023-06-11T14:11:14.561Z,5.30
2023-06-11T14:13:44.076Z,4.63
2023-06-11T14:16:16.140Z,4.82
2023-06-11T14:18:45.602Z,5.03
2023-06-11T14:21:14.956Z,4.43
2023-06-11T14:23:44.319Z,4.68
2023-06-11T14:26:13.755Z,4.60
2023-06-11T14:28:43.117Z,4.55
2023-06-11T14:31:12.515Z,5.30
2023-06-11T14:33:44.411Z,5.03
2023-06-11T14:36:13.786Z,4.97
2023-06-11T14:38:43.176Z,5.22
2023-06-11T14:41:12.616Z,4.90
2023-06-11T14:43:41.949Z,4.95
2023-06-11T14:46:11.443Z,4.75
2023-06-11T14:48:40.865Z,4.95
2023-06-11T14:51:12.815Z,4.75
2023-06-11T14:53:42.401Z,5.13
2023-06-11T14:56:11.740Z,4.53
2023-06-11T14:58:41.135Z,5.07
2023-06-11T15:01:10.565Z,4.70
2023-06-11T15:03:40.392Z,5.10
2023-06-11T15:06:12.373Z,4.82
2023-06-11T15:08:41.760Z,5.20
2023-06-11T15:11:11.248Z,5.03
2023-06-11T15:13:40.737Z,5.57
2023-06-11T15:16:10.180Z,5.07
2023-06-11T15:18:39.641Z,4.65
2023-06-11T15:21:08.972Z,4.60
2023-06-11T15:23:40.972Z,4.90
2023-06-11T15:26:10.302Z,4.75
2023-06-11T15:28:39.849Z,4.65
2023-06-11T15:31:09.278Z,5.10
2023-06-11T15:33:39.315Z,4.80
2023-06-11T15:36:08.703Z,5.00
2023-06-11T15:38:38.236Z,4.40
2023-06-11T15:41:10.171Z,4.55
2023-06-11T15:43:39.613Z,4.93
2023-06-11T15:46:09.005Z,4.97
2023-06-11T15:48:38.448Z,4.80
2023-06-11T15:51:07.920Z,4.22
2023-06-11T15:53:37.280Z,4.68
2023-06-11T15:56:06.801Z,4.93
2023-06-11T15:58:38.687Z,4.75
2023-06-11T16:01:08.110Z,4.80
2023-06-11T16:03:39.760Z,4.57
2023-06-11T16:06:09.243Z,4.47
2023-06-11T16:08:38.648Z,4.43
2023-06-11T16:11:08.121Z,4.50
2023-06-11T16:13:40.059Z,4.50
2023-06-11T16:16:09.421Z,4.43
2023-06-11T16:18:38.769Z,4.18
2023-06-11T16:21:08.149Z,4.30
2023-06-11T16:23:37.505Z,4.40
2023-06-11T16:26:06.908Z,4.38
2023-06-11T16:28:36.253Z,4.45
2023-06-11T16:31:08.241Z,4.15
2023-06-11T16:33:55.471Z,4.40
2023-06-11T16:36:26.553Z,4.20
2023-06-11T16:38:57.112Z,4.18
2023-06-11T16:41:30.452Z,4.13
2023-06-11T16:43:59.827Z,4.10
2023-06-11T16:46:31.778Z,4.13
2023-06-11T16:49:01.310Z,4.00
2023-06-11T16:51:30.703Z,3.70
2023-06-11T16:54:00.173Z,4.28
2023-06-11T16:56:30.093Z,3.78
2023-06-11T16:58:59.437Z,3.90
2023-06-11T17:01:31.433Z,3.75
2023-06-11T17:04:01.255Z,4.30
2023-06-11T17:06:31.045Z,4.25
2023-06-11T17:09:00.472Z,3.97
2023-06-11T17:11:29.822Z,3.78
2023-06-11T17:13:59.763Z,3.83
2023-06-11T17:16:31.820Z,3.92
2023-06-11T17:19:01.236Z,3.80
2023-06-11T17:21:31.065Z,3.95
2023-06-11T17:24:00.444Z,4.10
2023-06-11T17:26:30.220Z,3.88
2023-06-11T17:28:59.573Z,3.92
2023-06-11T17:31:31.540Z,3.63
2023-06-11T17:34:00.892Z,3.75
2023-06-11T17:36:30.306Z,4.20
2023-06-11T17:38:59.741Z,3.75
2023-06-11T17:41:29.120Z,3.90
2023-06-11T17:43:58.471Z,3.97
2023-06-11T17:46:27.848Z,3.95
2023-06-11T17:48:59.881Z,4.20
2023-06-11T17:51:29.409Z,3.90
2023-06-11T17:53:58.862Z,3.70
2023-06-11T17:56:28.372Z,3.58
2023-06-11T17:58:57.723Z,3.83
2023-06-11T18:01:27.098Z,3.70
2023-06-11T18:03:56.629Z,3.50
2023-06-11T18:06:28.928Z,3.97
2023-06-11T18:08:58.383Z,3.80
2023-06-11T18:11:28.885Z,3.78
2023-06-11T18:16:27.405Z,3.53
2023-06-11T18:18:56.872Z,3.72
2023-06-11T18:21:30.780Z,3.70
2023-06-11T18:24:00.440Z,3.80
2023-06-11T18:26:30.258Z,3.83
2023-06-11T18:28:59.634Z,3.80
2023-06-11T18:31:29.083Z,3.55
2023-06-11T18:33:58.479Z,4.07
2023-06-11T18:36:30.412Z,3.72
2023-06-11T18:39:00.270Z,4.05
2023-06-11T18:41:30.958Z,3.90
2023-06-11T18:44:00.573Z,3.88
2023-06-11T18:46:30.064Z,3.50
2023-06-11T18:48:59.518Z,3.80
2023-06-11T18:51:31.455Z,3.55
2023-06-11T18:54:03.028Z,3.70
2023-06-11T18:56:32.393Z,3.65
2023-06-11T18:59:01.942Z,3.83
2023-06-11T19:01:31.506Z,3.90
2023-06-11T19:04:01.031Z,3.80
2023-06-11T19:06:33.090Z,4.00
2023-06-11T19:09:02.463Z,3.80
2023-06-11T19:11:31.819Z,3.90
2023-06-11T19:14:01.167Z,3.20
2023-06-11T19:16:30.654Z,3.55
2023-06-11T19:19:00.036Z,3.70
2023-06-11T19:21:29.397Z,4.00
2023-06-11T19:24:01.351Z,3.60
2023-06-11T19:26:30.690Z,3.65
2023-06-11T19:29:00.049Z,3.72
2023-06-11T19:31:29.795Z,3.70
2023-06-11T19:33:59.207Z,3.67
2023-06-11T19:36:28.604Z,3.42
2023-06-11T19:38:57.942Z,3.88
2023-06-11T19:41:30.606Z,4.20
2023-06-11T19:43:59.991Z,3.25
2023-06-11T19:46:35.378Z,3.90
2023-06-11T19:49:05.080Z,3.70
2023-06-11T19:51:34.442Z,3.58
2023-06-11T19:54:03.834Z,3.70
2023-06-11T19:56:35.770Z,3.67
2023-06-11T19:59:05.121Z,3.67
2023-06-11T20:01:34.959Z,3.78
2023-06-11T20:04:04.490Z,4.00
2023-06-11T20:06:34.176Z,3.90
2023-06-11T20:09:04.579Z,3.85
2023-06-11T20:11:37.280Z,3.60
2023-06-11T20:14:06.621Z,3.58
2023-06-11T20:16:35.987Z,3.90
2023-06-11T20:19:05.318Z,3.63
2023-06-11T20:21:34.803Z,3.95
2023-06-11T20:24:04.183Z,3.75
2023-06-11T20:26:37.619Z,4.00
2023-06-11T20:29:07.502Z,3.83
2023-06-11T20:31:36.902Z,4.20
2023-06-11T20:34:06.336Z,3.78
2023-06-11T20:36:35.701Z,3.88
2023-06-11T20:39:05.092Z,3.90
2023-06-11T20:41:39.741Z,3.70
2023-06-11T20:44:09.087Z,3.90
2023-06-11T20:46:38.534Z,3.70
2023-06-11T20:49:07.947Z,3.95
2023-06-11T20:51:39.443Z,3.92
2023-06-11T20:54:08.844Z,4.00
2023-06-11T20:56:41.015Z,4.05
2023-06-11T20:59:11.291Z,4.00
2023-06-11T21:01:40.718Z,3.83
2023-06-11T21:04:10.105Z,4.00
2023-06-11T21:06:40.923Z,4.10
2023-06-11T21:09:10.379Z,3.83
2023-06-11T21:11:42.849Z,3.97
2023-06-11T21:14:14.916Z,3.90
2023-06-11T21:16:44.501Z,3.90
2023-06-11T21:19:14.416Z,3.90
2023-06-11T21:21:43.875Z,3.60
2023-06-11T21:24:13.276Z,3.63
2023-06-11T21:26:45.249Z,3.80
2023-06-11T21:29:14.714Z,3.70
2023-06-11T21:31:44.188Z,4.10
2023-06-11T21:34:13.531Z,4.15
2023-06-11T21:36:42.852Z,4.00
2023-06-11T21:39:12.185Z,3.75
2023-06-11T21:41:41.550Z,3.78
2023-06-11T21:44:14.362Z,3.58
2023-06-11T21:46:44.288Z,4.00
2023-06-11T21:49:13.625Z,4.07
2023-06-11T21:51:42.964Z,4.00
2023-06-11T21:54:12.298Z,3.90
2023-06-11T21:56:41.662Z,3.70
2023-06-11T21:59:13.579Z,3.90
2023-06-11T22:01:42.984Z,3.90
2023-06-11T22:04:12.474Z,4.07
2023-06-11T22:06:43.120Z,4.05
2023-06-11T22:09:12.737Z,3.95
2023-06-11T22:11:43.902Z,4.38
2023-06-11T22:14:15.864Z,4.43
2023-06-11T22:16:46.633Z,3.85
2023-06-11T22:19:16.590Z,3.80
2023-06-11T22:21:46.196Z,4.37
2023-06-11T22:24:16.355Z,4.30
2023-06-11T22:26:46.493Z,4.20
2023-06-11T22:29:18.382Z,3.90
2023-06-11T22:31:47.757Z,4.03
2023-06-11T22:34:17.104Z,3.92
2023-06-11T22:36:46.432Z,4.03
2023-06-11T22:39:15.764Z,3.95
2023-06-11T22:41:45.101Z,4.28
2023-06-11T22:44:14.436Z,4.40
2023-06-11T22:46:46.624Z,4.20
2023-06-11T22:49:16.101Z,4.70
2023-06-11T22:51:48.306Z,4.13
2023-06-11T22:54:17.743Z,4.28
2023-06-11T22:56:47.101Z,4.20
2023-06-11T22:59:18.403Z,4.18
2023-06-11T23:01:50.499Z,4.38
2023-06-11T23:04:21.000Z,4.20
2023-06-11T23:06:50.403Z,4.22
2023-06-11T23:09:19.943Z,4.00
2023-06-11T23:11:49.480Z,4.32
2023-06-11T23:14:18.823Z,4.75
2023-06-11T23:16:51.620Z,4.10
2023-06-11T23:19:23.846Z,4.35
2023-06-11T23:21:57.798Z,4.47
2023-06-11T23:24:27.849Z,4.38
2023-06-11T23:26:57.931Z,4.90
2023-06-11T23:29:28.003Z,4.23
2023-06-11T23:31:59.942Z,4.57
2023-06-11T23:34:29.318Z,4.47
2023-06-11T23:36:58.669Z,4.30
2023-06-11T23:39:28.958Z,4.40
2023-06-11T23:41:58.333Z,4.60
2023-06-11T23:44:27.689Z,4.65
2023-06-11T23:46:57.033Z,4.70
2023-06-11T23:49:28.942Z,4.53
2023-06-11T23:51:59.856Z,4.68
2023-06-11T23:54:29.198Z,4.25
2023-06-11T23:56:58.642Z,4.68
2023-06-11T23:59:28.317Z,4.63
